Time;durP1;ratioP1;P1;durP2;ratioP2;P2;SDS_P1;SDS_P2;PMS_P1;PMS_P2;Temp;Humidity;BMP_temperature;BMP_pressure;BME280_temperature;BME280_humidity;BME280_pressure;Samples;Min_cycle;Max_cycle;Signal;HPM_P1;HPM_P2
2021/03/12 00:00:39;;;;;;;6.37;1.23;;;;;;;-2.18;58.45;99866.88;1692291;83;21412;-58
2021/03/12 00:03:16;;;;;;;4.80;2.10;;;;;;;-2.19;58.42;99844.01;1694175;83;21200;-58
2021/03/12 00:05:49;;;;;;;8.30;1.60;;;;;;;-2.18;58.28;99852.37;1704566;83;21114;-57
2021/03/12 00:08:17;;;;;;;5.60;1.83;;;;;;;-2.19;58.27;99854.56;1701308;83;21228;-57
2021/03/12 00:10:46;;;;;;;5.17;2.27;;;;;;;-2.19;58.19;99850.17;1702143;83;20995;-57
2021/03/12 00:13:13;;;;;;;2.93;1.60;;;;;;;-2.18;58.20;99852.37;1699807;83;21149;-58
2021/03/12 00:15:40;;;;;;;5.07;1.67;;;;;;;-2.19;58.08;99841.37;1700699;83;21302;-59
2021/03/12 00:18:08;;;;;;;3.30;1.73;;;;;;;-2.20;58.09;99833.89;1702413;83;21137;-58
2021/03/12 00:20:38;;;;;;;4.70;1.93;;;;;;;-2.20;58.12;99830.38;1681365;83;21197;-59
2021/03/12 00:23:06;;;;;;;6.40;1.97;;;;;;;-2.21;57.89;99822.91;1701630;83;21137;-58
2021/03/12 00:25:40;;;;;;;5.07;1.53;;;;;;;-2.21;57.77;99820.73;1676263;83;21137;-57
2021/03/12 00:28:09;;;;;;;3.22;1.32;;;;;;;-2.23;57.81;99815.45;1701824;83;23753;-57
2021/03/12 00:30:37;;;;;;;4.33;1.67;;;;;;;-2.22;57.52;99812.38;1702248;83;21130;-57
2021/03/12 00:33:04;;;;;;;8.53;1.87;;;;;;;-2.22;57.47;99801.83;1702501;83;21149;-57
2021/03/12 00:35:34;;;;;;;4.50;1.40;;;;;;;-2.22;57.25;99797.44;1702680;83;21125;-58
2021/03/12 00:38:02;;;;;;;6.13;1.80;;;;;;;-2.21;57.19;99791.73;1700306;83;21117;-57
2021/03/12 00:40:43;;;;;;;8.97;1.90;;;;;;;-2.22;57.11;99794.80;1699664;83;22314;-59
2021/03/12 00:43:11;;;;;;;4.43;1.70;;;;;;;-2.21;57.05;99794.37;1672762;83;21628;-58
2021/03/12 00:45:41;;;;;;;4.43;1.70;;;;;;;-2.20;57.10;99790.82;1700093;83;21463;-58
2021/03/12 00:48:10;;;;;;;9.53;1.90;;;;;;;-2.18;57.10;99788.64;1701084;83;21130;-57
2021/03/12 00:50:39;;;;;;;3.10;1.63;;;;;;;-2.17;56.93;99781.61;1701124;83;21116;-59
2021/03/12 00:53:07;;;;;;;5.43;1.70;;;;;;;-2.18;56.59;99779.84;1699359;83;21090;-59
2021/03/12 00:55:35;;;;;;;4.50;1.60;;;;;;;-2.20;56.70;99759.18;1699898;83;21085;-57
2021/03/12 00:58:04;;;;;;;3.90;1.50;;;;;;;-2.21;56.54;99779.39;1699385;83;21403;-58
2021/03/12 01:00:34;;;;;;;7.83;2.13;;;;;;;-2.20;56.64;99763.13;1695507;83;21454;-57
2021/03/12 01:03:04;;;;;;;7.57;1.73;;;;;;;-2.18;56.52;99754.36;1702370;83;21216;-59
2021/03/12 01:05:32;;;;;;;6.23;1.73;;;;;;;-2.17;56.30;99744.70;1701979;83;21122;-59
2021/03/12 01:07:59;;;;;;;4.57;1.67;;;;;;;-2.18;56.42;99734.59;1700348;83;21394;-59
2021/03/12 01:10:28;;;;;;;5.63;1.80;;;;;;;-2.18;56.41;99735.91;1699988;83;21275;-58
2021/03/12 01:12:55;;;;;;;3.43;1.73;;;;;;;-2.20;56.38;99728.42;1696232;83;21468;-59
2021/03/12 01:15:24;;;;;;;4.00;1.40;;;;;;;-2.21;56.47;99730.61;1695394;83;21228;-58
2021/03/12 01:17:53;;;;;;;8.17;2.13;;;;;;;-2.21;56.46;99717.89;1699597;83;21185;-59
2021/03/12 01:20:30;;;;;;;3.33;1.10;;;;;;;-2.24;56.45;99707.33;1699690;83;21097;-58
2021/03/12 01:22:59;;;;;;;5.83;1.60;;;;;;;-2.25;56.36;99697.22;1700405;83;21296;-58
2021/03/12 01:25:38;;;;;;;7.83;1.60;;;;;;;-2.25;56.49;99707.77;1697949;83;21196;-58
2021/03/12 01:28:06;;;;;;;2.70;1.20;;;;;;;-2.24;56.54;99720.52;1696368;83;21293;-59
2021/03/12 01:30:36;;;;;;;9.87;1.57;;;;;;;-2.24;56.70;99731.94;1699167;83;21759;-59
2021/03/12 01:33:08;;;;;;;6.42;2.65;;;;;;;-2.24;56.65;99738.97;1696268;83;21729;-59
2021/03/12 01:35:36;;;;;;;9.13;1.47;;;;;;;-2.26;56.58;99737.64;1700878;83;21764;-57
2021/03/12 01:38:04;;;;;;;4.20;1.47;;;;;;;-2.25;56.69;99741.16;1697629;83;21776;-58
2021/03/12 01:40:32;;;;;;;6.60;1.43;;;;;;;-2.25;56.77;99743.36;1695083;83;21170;-59
2021/03/12 01:43:02;;;;;;;3.10;1.40;;;;;;;-2.26;56.68;99740.28;1696712;83;21189;-58
2021/03/12 01:45:42;;;;;;;7.20;1.60;;;;;;;-2.29;56.69;99721.80;1700102;83;21168;-58
2021/03/12 01:48:16;;;;;;;4.63;1.50;;;;;;;-2.33;56.87;99722.25;1696841;83;21409;-58
2021/03/12 01:50:48;;;;;;;6.25;1.55;;;;;;;-2.33;57.07;99722.69;1702060;83;21498;-60
2021/03/12 01:53:17;;;;;;;3.90;2.37;;;;;;;-2.33;57.13;99716.09;1681588;83;21201;-58
2021/03/12 01:55:45;;;;;;;4.10;1.50;;;;;;;-2.32;57.19;99701.61;1698948;83;21214;-60
2021/03/12 01:58:17;;;;;;;5.20;1.57;;;;;;;-2.32;57.03;99689.74;1696964;83;21270;-61
2021/03/12 02:00:55;;;;;;;4.20;1.23;;;;;;;-2.32;57.04;99676.56;1681612;83;21272;-60
2021/03/12 02:03:46;;;;;;;5.97;1.77;;;;;;;-2.29;57.08;99675.23;1825613;76;29267;-59
2021/03/12 02:06:19;;;;;;;4.30;1.20;;;;;;;-2.35;57.09;99680.94;1752749;80;21609;-60
2021/03/12 02:08:49;;;;;;;4.63;1.53;;;;;;;-2.36;57.17;99686.64;1740032;78;21507;-60
2021/03/12 02:11:18;;;;;;;3.23;1.30;;;;;;;-2.38;57.20;99683.11;1773462;78;21153;-60
2021/03/12 02:14:09;;;;;;;5.00;1.70;;;;;;;-2.38;57.20;99663.78;1775192;78;21175;-59
2021/03/12 02:16:45;;;;;;;4.47;1.57;;;;;;;-2.39;57.22;99657.66;1775853;78;21263;-57
2021/03/12 02:19:24;;;;;;;6.23;2.60;;;;;;;-2.41;57.34;99657.20;1774604;78;21195;-58
2021/03/12 02:21:55;;;;;;;5.00;1.20;;;;;;;-2.42;57.31;99661.59;1747097;78;21391;-58
2021/03/12 02:24:34;;;;;;;2.33;1.30;;;;;;;-2.43;57.23;99653.67;1772956;78;21206;-58
2021/03/12 02:27:11;;;;;;;8.37;2.43;;;;;;;-2.44;57.39;99663.77;1777529;78;21166;-60
2021/03/12 02:29:49;;;;;;;4.23;1.53;;;;;;;-2.46;57.32;99642.68;1774596;78;21189;-58
2021/03/12 02:32:17;;;;;;;3.57;1.63;;;;;;;-2.47;57.40;99624.25;1778036;78;21180;-59
2021/03/12 02:34:47;;;;;;;5.60;2.07;;;;;;;-2.46;57.41;99633.89;1774574;78;21240;-59
2021/03/12 02:37:18;;;;;;;11.53;3.00;;;;;;;-2.49;57.36;99627.31;1772296;78;22438;-58
2021/03/12 02:39:53;;;;;;;10.97;2.50;;;;;;;-2.50;57.45;99625.55;1775187;78;21847;-59
2021/03/12 02:42:22;;;;;;;5.43;1.97;;;;;;;-2.53;57.59;99626.42;1776691;78;21205;-58
2021/03/12 02:44:52;;;;;;;5.07;1.53;;;;;;;-2.53;57.66;99637.39;1810417;77;21188;-59
2021/03/12 02:47:29;;;;;;;8.23;2.10;;;;;;;-2.53;57.74;99645.30;1812650;77;22212;-59
2021/03/12 02:49:59;;;;;;;7.63;2.00;;;;;;;-2.54;57.66;99643.10;1812906;77;21277;-59
2021/03/12 02:52:27;;;;;;;4.70;1.47;;;;;;;-2.55;57.65;99632.12;1784512;77;21178;-59
2021/03/12 02:54:55;;;;;;;5.80;2.30;;;;;;;-2.55;57.67;99629.48;1813725;77;21194;-57
2021/03/12 02:57:24;;;;;;;5.83;1.57;;;;;;;-2.55;57.65;99613.67;1759001;77;21569;-56
2021/03/12 02:59:54;;;;;;;4.53;1.60;;;;;;;-2.55;57.67;99614.14;1808989;77;21501;-57
2021/03/12 03:02:47;;;;;;;2.73;1.30;;;;;;;-2.52;57.72;99619.39;1868278;75;25108;-57
2021/03/12 03:05:17;;;;;;;5.30;1.70;;;;;;;-2.58;57.63;99615.00;1837905;77;20921;-58
2021/03/12 03:07:47;;;;;;;3.73;1.47;;;;;;;-2.59;57.80;99593.47;1836627;76;21423;-56
2021/03/12 03:10:16;;;;;;;8.10;2.10;;;;;;;-2.60;57.80;99611.47;1837361;76;21004;-58
2021/03/12 03:12:45;;;;;;;7.20;1.53;;;;;;;-2.59;57.81;99604.45;1804953;77;20917;-57
2021/03/12 03:15:14;;;;;;;5.67;1.90;;;;;;;-2.59;57.66;99607.09;1837438;76;21804;-58
2021/03/12 03:17:41;;;;;;;5.13;2.63;;;;;;;-2.62;57.55;99597.84;1774319;78;20965;-56
2021/03/12 03:20:10;;;;;;;4.13;1.70;;;;;;;-2.65;57.66;99604.02;1749663;79;21201;-56
2021/03/12 03:22:39;;;;;;;5.17;1.67;;;;;;;-2.67;57.69;99597.41;1766720;79;20981;-57
2021/03/12 03:25:09;;;;;;;5.80;1.97;;;;;;;-2.70;57.68;99597.83;1801583;78;20937;-58
2021/03/12 03:27:37;;;;;;;8.30;2.03;;;;;;;-2.71;57.80;99601.34;1799890;77;20949;-56
2021/03/12 03:30:08;;;;;;;3.90;1.60;;;;;;;-2.72;57.87;99599.58;1776087;78;21092;-58
2021/03/12 03:32:35;;;;;;;5.40;1.70;;;;;;;-2.74;57.84;99601.36;1785566;78;21458;-58
2021/03/12 03:35:10;;;;;;;11.60;1.70;;;;;;;-2.76;57.80;99596.51;1765053;79;21134;-56
2021/03/12 03:37:38;;;;;;;6.75;1.40;;;;;;;-2.77;57.95;99596.06;1749429;78;21127;-55
2021/03/12 03:40:06;;;;;;;5.60;1.80;;;;;;;-2.80;57.88;99592.09;1782264;79;21158;-55
2021/03/12 03:42:34;;;;;;;8.40;1.90;;;;;;;-2.82;57.91;99593.87;1768365;79;21118;-58
2021/03/12 03:47:37;;;;;;;5.67;1.40;;;;;;;-2.77;57.98;99565.33;1836084;75;25349;-58
2021/03/12 03:50:06;;;;;;;2.83;1.57;;;;;;;-2.78;57.95;99564.01;1807661;78;20963;-55
2021/03/12 03:52:35;;;;;;;8.13;1.63;;;;;;;-2.78;57.97;99556.98;1804829;77;22778;-57
2021/03/12 03:55:07;;;;;;;6.00;1.50;;;;;;;-2.78;57.91;99538.98;1804735;77;21489;-57
2021/03/12 03:57:35;;;;;;;1.70;0.97;;;;;;;-2.80;57.78;99534.14;1749768;78;21116;-56
2021/03/12 04:00:06;;;;;;;4.03;1.40;;;;;;;-2.83;57.79;99554.80;1776413;78;21142;-57
2021/03/12 04:02:35;;;;;;;7.77;1.57;;;;;;;-2.85;57.83;99542.05;1804171;77;21005;-56
2021/03/12 04:05:04;;;;;;;5.30;1.73;;;;;;;-2.87;57.86;99555.64;1771803;78;21288;-55
2021/03/12 04:07:31;;;;;;;4.33;1.40;;;;;;;-2.89;57.81;99547.33;1806021;78;21000;-59
2021/03/12 04:10:00;;;;;;;5.20;1.17;;;;;;;-2.93;57.83;99544.23;1766466;77;21479;-57
2021/03/12 04:12:27;;;;;;;5.10;1.67;;;;;;;-2.94;57.90;99557.83;1767587;78;21624;-56
2021/03/12 04:14:56;;;;;;;4.23;1.30;;;;;;;-2.95;58.04;99557.81;1806912;78;21166;-56
2021/03/12 04:17:25;;;;;;;5.07;1.73;;;;;;;-2.95;58.05;99582.84;1806539;78;21395;-58
2021/03/12 04:19:52;;;;;;;7.60;2.40;;;;;;;-2.96;58.00;99588.55;1774599;78;21234;-56
2021/03/12 04:22:20;;;;;;;6.03;1.93;;;;;;;-2.96;58.11;99580.64;1805145;78;21193;-56
2021/03/12 04:24:47;;;;;;;7.83;2.13;;;;;;;-2.96;58.10;99561.33;1806953;78;21571;-55
2021/03/12 04:27:18;;;;;;;7.70;1.73;;;;;;;-2.99;58.10;99571.44;1776557;78;21190;-56
2021/03/12 04:29:45;;;;;;;3.67;1.50;;;;;;;-2.99;58.32;99563.97;1748392;78;22898;-55
2021/03/12 04:32:14;;;;;;;4.77;1.90;;;;;;;-3.01;58.35;99558.69;1803528;78;21849;-58
2021/03/12 04:34:42;;;;;;;4.63;1.67;;;;;;;-3.01;58.33;99570.98;1752739;78;21155;-54
2021/03/12 04:37:10;;;;;;;4.53;1.60;;;;;;;-3.02;58.43;99571.41;1805219;77;21159;-57
2021/03/12 04:39:38;;;;;;;4.07;1.70;;;;;;;-3.02;58.41;99565.27;1804230;78;21180;-58
2021/03/12 04:42:06;;;;;;;5.80;1.60;;;;;;;-3.03;58.50;99569.65;1762218;78;22241;-58
2021/03/12 04:44:37;;;;;;;6.23;2.03;;;;;;;-3.02;58.62;99570.53;1780108;78;21484;-56
2021/03/12 04:47:06;;;;;;;4.30;1.60;;;;;;;-3.02;58.68;99571.41;1727349;80;21186;-58
2021/03/12 04:49:35;;;;;;;5.33;1.80;;;;;;;-3.01;58.58;99578.88;1743186;80;21132;-57
2021/03/12 04:52:05;;;;;;;4.37;1.60;;;;;;;-3.00;58.72;99577.58;1716884;80;21206;-56
2021/03/12 04:54:33;;;;;;;5.33;1.80;;;;;;;-3.01;58.65;99578.88;1714919;80;21284;-56
2021/03/12 04:57:01;;;;;;;5.83;1.63;;;;;;;-3.00;58.76;99575.38;1743565;80;21017;-56
2021/03/12 04:59:29;;;;;;;5.63;2.33;;;;;;;-3.00;58.85;99578.89;1747454;80;21120;-58
2021/03/12 05:01:56;;;;;;;4.13;1.63;;;;;;;-3.00;58.79;99578.01;1744211;80;21472;-55
2021/03/12 05:04:25;;;;;;;6.27;1.77;;;;;;;-2.99;58.84;99577.14;1714583;80;21592;-58
2021/03/12 05:06:53;;;;;;;5.53;2.00;;;;;;;-3.00;58.87;99572.31;1715676;80;21735;-57
2021/03/12 05:09:40;;;;;;;5.43;1.80;;;;;;;-3.00;58.90;99555.19;1741121;80;21226;-54
2021/03/12 05:12:10;;;;;;;5.40;2.03;;;;;;;-3.01;58.81;99580.20;1717180;80;21123;-57
2021/03/12 05:14:39;;;;;;;4.47;1.77;;;;;;;-3.05;58.92;99576.22;1715641;80;21127;-57
2021/03/12 05:17:08;;;;;;;7.77;1.93;;;;;;;-3.06;58.97;99579.73;1744624;80;21744;-56
2021/03/12 05:19:36;;;;;;;6.70;1.63;;;;;;;-3.03;58.89;99566.14;1743332;80;21446;-54
2021/03/12 05:22:04;;;;;;;3.17;1.67;;;;;;;-3.03;58.97;99576.67;1718405;80;21044;-57
2021/03/12 05:24:33;;;;;;;7.17;2.63;;;;;;;-3.02;58.92;99574.05;1714713;80;21133;-56
2021/03/12 05:27:01;;;;;;;10.73;2.53;;;;;;;-3.01;58.92;99569.23;1745869;80;21578;-56
2021/03/12 05:29:30;;;;;;;6.17;2.33;;;;;;;-2.97;58.93;99568.78;1742134;80;21190;-57
2021/03/12 05:32:00;;;;;;;5.83;1.93;;;;;;;-2.97;58.98;99559.56;1674861;83;23383;-53
2021/03/12 05:34:28;;;;;;;12.67;2.53;;;;;;;-2.96;58.79;99552.11;1697671;82;21183;-57
2021/03/12 05:36:55;;;;;;;6.73;2.43;;;;;;;-2.97;58.90;99576.68;1697652;82;21127;-57
2021/03/12 05:39:24;;;;;;;6.87;2.20;;;;;;;-2.96;58.94;99571.86;1697830;82;21207;-54
2021/03/12 05:41:51;;;;;;;4.30;2.20;;;;;;;-2.94;58.96;99557.83;1705328;82;21178;-55
2021/03/12 05:44:21;;;;;;;4.67;2.00;;;;;;;-2.94;58.75;99556.52;1685274;83;21210;-54
2021/03/12 05:46:49;;;;;;;8.93;2.47;;;;;;;-2.94;58.64;99564.84;1684684;81;21237;-56
2021/03/12 05:49:16;;;;;;;5.67;2.13;;;;;;;-2.96;58.77;99549.03;1720304;81;21195;-56
2021/03/12 05:51:44;;;;;;;6.77;2.40;;;;;;;-2.97;58.73;99553.86;1691493;82;21556;-57
2021/03/12 05:54:12;;;;;;;5.53;2.13;;;;;;;-2.94;58.69;99556.95;1718255;81;21185;-56
2021/03/12 05:56:42;;;;;;;8.83;2.70;;;;;;;-2.93;58.67;99558.71;1697609;82;21650;-57
2021/03/12 05:59:09;;;;;;;7.10;2.13;;;;;;;-2.91;58.66;99553.02;1723059;81;21218;-56
2021/03/12 06:01:39;;;;;;;11.80;2.70;;;;;;;-2.88;58.50;99559.59;1720650;81;21207;-53
2021/03/12 06:04:09;;;;;;;5.13;3.07;;;;;;;-2.86;58.47;99546.88;1721609;81;21518;-56
2021/03/12 06:06:38;;;;;;;7.43;2.47;;;;;;;-2.82;58.60;99545.14;1694760;82;21210;-54
2021/03/12 06:09:06;;;;;;;5.57;2.10;;;;;;;-2.76;58.28;99542.50;1720049;81;22324;-54
2021/03/12 06:11:34;;;;;;;6.80;2.77;;;;;;;-2.71;58.03;99539.42;1720459;81;21569;-56
2021/03/12 06:14:03;;;;;;;7.73;3.20;;;;;;;-2.70;58.02;99549.09;1721222;81;21204;-57
2021/03/12 06:16:49;;;;;;;5.83;2.70;;;;;;;-2.67;57.93;99528.03;1721769;81;21123;-55
2021/03/12 06:19:21;;;;;;;9.33;3.97;;;;;;;-2.65;58.00;99518.38;1697606;81;21575;-55
2021/03/12 06:21:50;;;;;;;6.43;2.47;;;;;;;-2.61;57.95;99513.97;1705503;81;23083;-55
2021/03/12 06:24:32;;;;;;;10.93;3.13;;;;;;;-2.56;57.81;99521.02;1722240;81;21162;-56
2021/03/12 06:27:28;;;;;;;19.62;3.47;;;;;;;-2.51;57.62;99506.08;1721995;81;21142;-57
2021/03/12 06:29:59;;;;;;;7.67;2.13;;;;;;;-2.45;57.49;99510.02;1721296;81;21119;-56
2021/03/12 06:32:50;;;;;;;10.05;3.42;;;;;;;-2.43;57.20;99501.69;1714200;81;21155;-55
2021/03/12 06:35:27;;;;;;;5.80;2.50;;;;;;;-2.38;57.10;99482.77;1869491;75;24063;-57
2021/03/12 06:38:08;;;;;;;10.80;2.67;;;;;;;-2.43;57.12;99469.17;1812729;74;21036;-57
2021/03/12 06:40:43;;;;;;;6.33;2.10;;;;;;;-2.45;56.96;99477.08;1836022;74;21198;-59
2021/03/12 06:43:24;;;;;;;7.53;2.80;;;;;;;-2.42;56.99;99480.16;1862572;74;20920;-57
2021/03/12 06:45:55;;;;;;;5.20;2.17;;;;;;;-2.40;56.98;99472.70;1862363;74;20948;-60
2021/03/12 06:48:33;;;;;;;7.97;2.63;;;;;;;-2.35;56.81;99466.09;1859047;74;21032;-58
2021/03/12 06:51:19;;;;;;;6.03;2.27;;;;;;;-2.36;56.77;99477.50;1863843;74;21008;-54
2021/03/12 06:53:49;;;;;;;7.93;2.87;;;;;;;-2.33;56.76;99497.29;1863239;74;21378;-59
2021/03/12 06:56:16;;;;;;;5.03;2.47;;;;;;;-2.31;56.77;99496.85;1860780;74;21193;-56
2021/03/12 06:58:59;;;;;;;5.77;2.23;;;;;;;-2.23;56.78;99483.66;1874029;75;26047;-59
2021/03/12 07:01:29;;;;;;;35.33;3.67;;;;;;;-2.24;56.52;99480.58;1846416;76;21416;-56
2021/03/12 07:04:12;;;;;;;12.40;2.50;;;;;;;-2.23;56.47;99481.02;1844008;76;21197;-57
2021/03/12 07:06:55;;;;;;;4.20;2.17;;;;;;;-2.18;56.46;99472.66;1865575;74;26160;-57
2021/03/12 07:09:26;;;;;;;8.23;2.50;;;;;;;-2.19;56.42;99486.71;1839269;75;21190;-57
2021/03/12 07:12:08;;;;;;;9.23;1.67;;;;;;;-2.17;56.02;99481.00;1836683;75;21930;-57
2021/03/12 07:14:45;;;;;;;14.97;1.93;;;;;;;-2.13;56.22;99465.63;1825994;75;26019;-56
2021/03/12 07:17:16;;;;;;;6.50;2.10;;;;;;;-2.15;56.14;99448.92;1783365;77;21214;-58
2021/03/12 07:19:45;;;;;;;6.77;2.57;;;;;;;-2.12;56.11;99441.87;1788516;77;21371;-58
2021/03/12 07:22:12;;;;;;;7.00;2.97;;;;;;;-2.10;56.06;99441.88;1789881;77;21366;-59
2021/03/12 07:24:41;;;;;;;4.73;1.97;;;;;;;-2.09;55.99;99437.91;1790079;77;21159;-58
2021/03/12 07:27:09;;;;;;;8.17;2.20;;;;;;;-2.09;56.08;99434.40;1789927;77;21187;-59
2021/03/12 07:29:44;;;;;;;3.93;1.57;;;;;;;-2.07;55.83;99441.88;1787123;77;21177;-59
2021/03/12 07:32:16;;;;;;;4.57;1.40;;;;;;;-2.07;56.00;99444.52;1793235;77;21275;-55
2021/03/12 07:34:45;;;;;;;7.27;1.87;;;;;;;-2.05;55.98;99444.95;1665761;80;21329;-56
2021/03/12 07:37:14;;;;;;;8.80;1.53;;;;;;;-2.03;55.99;99458.98;1757502;79;21201;-59
2021/03/12 07:39:45;;;;;;;5.87;1.43;;;;;;;-2.01;55.90;99457.23;1709215;80;21234;-59
2021/03/12 07:42:18;;;;;;;6.03;1.80;;;;;;;-2.01;55.94;99436.13;1745300;80;22004;-56
2021/03/12 07:45:05;;;;;;;5.10;2.03;;;;;;;-1.99;56.02;99442.73;1822664;76;26064;-56
2021/03/12 07:47:38;;;;;;;12.18;2.22;;;;;;;-2.02;56.07;99429.53;1739276;77;21154;-58
2021/03/12 07:50:34;;;;;;;9.53;1.60;;;;;;;-2.01;56.15;99428.66;1756913;77;21207;-60
2021/03/12 07:53:04;;;;;;;4.53;1.83;;;;;;;-2.00;56.11;99406.23;1772571;79;21167;-60
2021/03/12 07:55:50;;;;;;;4.43;1.63;;;;;;;-2.00;56.12;99422.06;1790164;77;21202;-58
2021/03/12 07:58:57;;;;;;;9.97;1.70;;;;;;;-2.01;56.11;99407.12;1785698;77;22038;-59
2021/03/12 08:01:26;;;;;;;5.37;1.60;;;;;;;-2.01;56.18;99415.03;1743473;80;21220;-61
2021/03/12 08:03:56;;;;;;;8.60;1.97;;;;;;;-1.99;56.29;99410.64;1719556;80;21213;-60
2021/03/12 08:06:42;;;;;;;4.67;1.40;;;;;;;-1.94;56.22;99416.77;1870843;75;26479;-58
2021/03/12 08:09:35;;;;;;;11.90;2.10;;;;;;;-1.98;56.41;99419.43;1837315;76;21167;-59
2021/03/12 08:12:39;;;;;;;5.97;1.87;;;;;;;-1.95;56.55;99424.67;1839626;76;21172;-58
2021/03/12 08:15:25;;;;;;;9.47;1.70;;;;;;;-1.86;56.39;99429.92;1867661;75;26109;-58
2021/03/12 08:18:04;;;;;;;7.33;1.57;;;;;;;-1.85;56.25;99433.00;1845958;76;20986;-60
2021/03/12 08:20:43;;;;;;;7.60;1.40;;;;;;;-1.84;56.26;99419.37;1839599;76;21234;-60
2021/03/12 08:23:35;;;;;;;7.33;1.60;;;;;;;-1.84;56.32;99411.02;1842071;76;21039;-60
2021/03/12 08:26:37;;;;;;;7.37;1.73;;;;;;;-1.77;56.59;99418.45;1868314;74;27448;-58
2021/03/12 08:29:41;;;;;;;3.17;0.97;;;;;;;-1.80;56.42;99402.22;1829845;76;21206;-58
2021/03/12 08:32:37;;;;;;;6.83;1.60;;;;;;;-1.79;56.63;99413.65;1813285;76;21199;-58
2021/03/12 08:35:38;;;;;;;5.27;1.17;;;;;;;-1.74;56.66;99391.63;1871462;75;26987;-59
2021/03/12 08:38:30;;;;;;;7.37;1.87;;;;;;;-1.76;56.51;99406.58;1843304;76;21182;-59
2021/03/12 08:41:08;;;;;;;6.07;1.30;;;;;;;-1.76;56.58;99389.87;1778841;79;21678;-61
2021/03/12 08:43:46;;;;;;;8.20;1.63;;;;;;;-1.75;56.70;99398.22;1770367;78;21173;-60
2021/03/12 08:46:27;;;;;;;10.50;1.73;;;;;;;-1.69;56.89;99371.80;1867371;75;28060;-59
2021/03/12 08:48:58;;;;;;;10.45;1.82;;;;;;;-1.68;56.81;99381.03;1840690;76;21397;-61
2021/03/12 08:51:28;;;;;;;7.57;1.20;;;;;;;-1.66;56.70;99376.63;1843324;76;21254;-60
2021/03/12 08:53:59;;;;;;;2.87;1.77;;;;;;;-1.63;56.72;99382.34;1842438;76;20945;-60
2021/03/12 08:56:33;;;;;;;3.43;1.40;;;;;;;-1.60;56.72;99363.39;1840928;76;20929;-62
2021/03/12 08:59:03;;;;;;;8.00;1.30;;;;;;;-1.57;56.77;99361.19;1812248;77;20958;-62
2021/03/12 09:01:36;;;;;;;9.27;1.33;;;;;;;-1.55;56.74;99350.19;1832614;76;21012;-60
2021/03/12 09:04:13;;;;;;;7.90;1.47;;;;;;;-1.47;56.74;99347.49;1821605;75;27825;-61
2021/03/12 09:06:48;;;;;;;13.93;2.20;;;;;;;-1.49;56.79;99363.77;1795529;77;20996;-61
2021/03/12 09:09:31;;;;;;;4.73;2.23;;;;;;;-1.44;56.78;99348.33;1825966;76;25603;-58
2021/03/12 09:12:17;;;;;;;8.07;1.50;;;;;;;-1.48;56.73;99351.89;1790793;77;21169;-62
2021/03/12 09:14:49;;;;;;;4.40;1.30;;;;;;;-1.47;56.77;99351.45;1734128;80;22671;-58
2021/03/12 09:17:19;;;;;;;8.47;1.40;;;;;;;-1.46;56.84;99355.84;1714594;79;22397;-59
2021/03/12 09:19:51;;;;;;;4.43;1.10;;;;;;;-1.48;56.80;99321.98;1792945;77;21408;-60
2021/03/12 09:22:22;;;;;;;13.23;1.63;;;;;;;-1.48;56.99;99337.81;1749724;77;21222;-60
2021/03/12 09:24:53;;;;;;;4.57;1.30;;;;;;;-1.50;57.04;99321.98;1791073;77;20957;-60
2021/03/12 09:27:26;;;;;;;;;;;;;;;-1.49;57.24;99330.78;1794940;77;22570;-58
2021/03/12 09:29:55;;;;;;;6.33;1.00;;;;;;;-1.51;57.30;99330.78;1806106;77;20538;-61
2021/03/12 09:32:39;;;;;;;5.00;1.50;;;;;;;-1.51;57.53;99336.06;1710630;80;20999;-60
2021/03/12 09:35:18;;;;;;;3.95;1.60;;;;;;;-1.48;57.57;99329.90;1733960;80;21185;-62
2021/03/12 09:37:47;;;;;;;15.47;2.10;;;;;;;-1.46;57.62;99317.57;1735876;79;21126;-61
2021/03/12 09:40:39;;;;;;;3.90;1.70;;;;;;;-1.42;57.66;99321.92;1819213;76;27004;-60
2021/03/12 09:43:09;;;;;;;7.40;1.67;;;;;;;-1.45;57.80;99315.37;1777930;78;21491;-60
2021/03/12 09:45:48;;;;;;;8.30;1.57;;;;;;;-1.40;57.86;99315.75;1868229;75;25116;-61
2021/03/12 09:48:17;;;;;;;12.47;1.50;;;;;;;-1.41;57.80;99311.80;1776914;78;21179;-61
2021/03/12 09:50:45;;;;;;;6.90;1.80;;;;;;;-1.40;57.78;99309.59;1811316;78;21454;-61
2021/03/12 09:53:14;;;;;;;4.50;1.40;;;;;;;-1.38;57.86;99313.11;1811432;78;22135;-61
2021/03/12 09:55:54;;;;;;;7.53;1.43;;;;;;;-1.33;57.89;99306.90;1861229;75;27482;-60
2021/03/12 09:58:23;;;;;;;7.27;1.97;;;;;;;-1.37;57.97;99295.06;1831926;76;21189;-62
2021/03/12 10:01:23;;;;;;;15.53;2.17;;;;;;;-1.36;58.46;99308.70;1843268;75;25121;-60
2021/03/12 10:03:52;;;;;;;5.70;1.90;;;;;;;-1.44;59.22;99302.13;1724619;81;21161;-61
2021/03/12 10:06:32;;;;;;;6.07;1.50;;;;;;;-1.41;60.11;99289.36;1870695;75;25394;-59
2021/03/12 10:09:09;;;;;;;4.03;1.37;;;;;;;-1.45;60.43;99282.37;1835530;77;21427;-61
2021/03/12 10:11:55;;;;;;;7.60;1.47;;;;;;;-1.41;61.27;99285.40;1809795;76;27064;-60
2021/03/12 10:14:37;;;;;;;4.97;1.70;;;;;;;-1.47;61.74;99282.38;1786109;77;21036;-60
2021/03/12 10:17:13;;;;;;;5.27;1.93;;;;;;;-1.49;62.51;99291.19;1787634;77;21923;-59
2021/03/12 10:19:45;;;;;;;8.38;2.83;;;;;;;-1.53;63.36;99283.28;1784787;77;21562;-59
2021/03/12 10:22:22;;;;;;;4.07;1.40;;;;;;;-1.56;64.14;99281.12;1784798;77;21432;-58
2021/03/12 10:25:29;;;;;;;5.73;1.73;;;;;;;-1.59;64.75;99287.28;1785761;77;21124;-59
2021/03/12 10:28:03;;;;;;;6.60;2.37;;;;;;;-1.60;65.46;99282.02;1782591;77;20958;-58
2021/03/12 10:30:34;;;;;;;4.73;1.97;;;;;;;-1.65;66.06;99282.06;1785722;77;22498;-61
2021/03/12 10:33:06;;;;;;;6.77;1.27;;;;;;;-1.70;66.73;99281.20;1779646;77;21222;-60
2021/03/12 10:35:51;;;;;;;6.17;1.47;;;;;;;-1.71;67.32;99275.52;1779353;77;21512;-59
2021/03/12 10:38:24;;;;;;;5.80;1.80;;;;;;;-1.73;67.82;99277.28;1780237;77;21154;-61
2021/03/12 10:43:33;;;;;;;4.73;2.63;;;;;;;-1.75;69.02;99285.64;1837872;76;27037;-60
2021/03/12 10:46:06;;;;;;;6.77;2.77;;;;;;;-1.80;69.35;99282.17;1798795;78;21210;-58
2021/03/12 10:48:42;;;;;;;7.50;2.17;;;;;;;-1.80;69.79;99273.38;1795795;78;23075;-60
2021/03/12 10:51:10;;;;;;;4.72;2.08;;;;;;;-1.81;70.31;99272.50;1736196;80;26817;-60
2021/03/12 10:53:52;;;;;;;8.27;3.67;;;;;;;-1.82;70.77;99273.82;1801701;78;21129;-59
2021/03/12 10:56:20;;;;;;;9.50;2.80;;;;;;;-1.84;71.14;99269.87;1802402;77;21526;-58
2021/03/12 10:58:52;;;;;;;8.83;3.13;;;;;;;-1.81;71.63;99276.45;1799574;78;21202;-59
2021/03/12 11:01:29;;;;;;;9.37;2.50;;;;;;;-1.82;71.89;99274.70;1797162;78;21240;-60
2021/03/12 11:03:58;;;;;;;6.30;2.90;;;;;;;-1.84;72.15;99271.19;1805646;78;20997;-60
2021/03/12 11:06:29;;;;;;;5.90;2.43;;;;;;;-1.86;72.43;99270.31;1733677;80;21162;-60
2021/03/12 11:08:56;;;;;;;4.47;1.83;;;;;;;-1.88;72.68;99270.79;1802149;78;21202;-58
2021/03/12 11:11:25;;;;;;;6.93;2.63;;;;;;;-1.86;73.02;99254.92;1800586;78;21424;-60
2021/03/12 11:13:55;;;;;;;8.10;2.60;;;;;;;-1.88;73.37;99249.69;1800008;78;21347;-59
2021/03/12 11:18:58;;;;;;;8.03;2.10;;;;;;;-1.87;74.27;99255.37;1796882;78;27608;-59
2021/03/12 11:21:28;;;;;;;9.07;3.10;;;;;;;-1.91;74.38;99256.29;1774521;79;21431;-58
2021/03/12 11:23:55;;;;;;;7.83;3.23;;;;;;;-1.90;74.55;99254.09;1766178;79;22216;-60
2021/03/12 11:26:23;;;;;;;9.93;2.90;;;;;;;-1.93;74.53;99261.57;1766616;79;21237;-60
2021/03/12 11:28:51;;;;;;;5.30;2.83;;;;;;;-1.94;74.60;99260.25;1771919;79;20988;-60
2021/03/12 11:31:19;;;;;;;6.77;2.60;;;;;;;-1.94;74.69;99258.49;1709022;81;21251;-61
2021/03/12 11:33:47;;;;;;;9.00;3.00;;;;;;;-1.91;74.86;99252.33;1704774;82;21206;-59
2021/03/12 11:36:15;;;;;;;7.40;2.57;;;;;;;-1.89;74.99;99247.93;1712064;81;22245;-60
2021/03/12 11:38:42;;;;;;;8.70;2.97;;;;;;;-1.86;75.11;99239.98;1713418;81;21073;-59
2021/03/12 11:41:11;;;;;;;7.40;3.50;;;;;;;-1.83;75.14;99237.33;1662616;82;21310;-58
2021/03/12 11:43:39;;;;;;;9.27;3.00;;;;;;;-1.80;75.15;99219.30;1711038;82;21219;-60
2021/03/12 11:46:06;;;;;;;6.10;3.10;;;;;;;-1.82;75.14;99221.06;1713199;81;21126;-58
2021/03/12 11:48:35;;;;;;;8.53;2.93;;;;;;;-1.83;75.27;99218.86;1708598;81;22141;-60
2021/03/12 11:51:02;;;;;;;7.10;1.80;;;;;;;-1.82;75.39;99213.14;1707900;81;21226;-59
2021/03/12 11:53:31;;;;;;;9.20;3.60;;;;;;;-1.80;75.69;99213.58;1711109;81;21228;-58
2021/03/12 11:55:58;;;;;;;10.23;3.53;;;;;;;-1.81;75.81;99211.82;1707361;82;21127;-60
2021/03/12 11:58:26;;;;;;;4.50;2.33;;;;;;;-1.81;75.84;99206.98;1706425;81;21203;-60
2021/03/12 12:00:53;;;;;;;10.10;3.17;;;;;;;-1.83;75.87;99195.12;1711510;81;21828;-60
2021/03/12 12:03:20;;;;;;;7.13;3.03;;;;;;;-1.83;75.86;99200.84;1715061;81;21215;-60
2021/03/12 12:05:48;;;;;;;6.60;2.93;;;;;;;-1.84;76.09;99189.84;1716281;82;21174;-59
2021/03/12 12:08:15;;;;;;;6.17;2.90;;;;;;;-1.85;76.30;99181.05;1714067;82;21232;-59